Thatta, Pakistan
Current Conditions -  °F | °C
As of 9:25 AM on Monday 26 Jan 2015 (Local Time) from OPKC Reporting Station
Haze Haze  
Wind Chill: 19°   Ceiling: Unl
Heat Index: 19°   Visibility: 2.5mi
Dew Point:   Wind: 8mph
Humidity: 43%   Direction: 30°NNE
Pressure: 30.18"   Gusts: NA
Location:  24.75°N, 67.92°E
Report Text: OPKC 260425Z 03007KT 4000 HZ FEW030 19/06 Q1022 NOSIG
Loading
Personal Weather Stations






























Interactive Weather Map New forecast layout! Learn more

10-Day Weather Forecast

Advertisements
Track Severe Weather on mobile